Time;durP1;ratioP1;P1;durP2;ratioP2;P2;SDS_P1;SDS_P2;PMS_P1;PMS_P2;Temp;Humidity;BMP_temperature;BMP_pressure;BME280_temperature;BME280_humidity;BME280_pressure;Samples;Min_cycle;Max_cycle;Signal;HPM_P1;HPM_P2
2023/01/29 00:00:36;;;;;;;10.65;8.07;;;;;;;4.50;100.00;98246.53;5031867;28;20221;-62
2023/01/29 00:03:01;;;;;;;10.95;8.15;;;;;;;4.50;100.00;98235.47;5031778;28;20703;-62
2023/01/29 00:05:27;;;;;;;12.07;9.05;;;;;;;5.00;100.00;98297.94;5032025;28;20681;-62
2023/01/29 00:07:52;;;;;;;10.15;7.13;;;;;;;4.85;100.00;98263.63;5031836;28;20234;-63
2023/01/29 00:10:18;;;;;;;9.68;7.35;;;;;;;4.70;100.00;98232.78;5031415;28;20685;-62
2023/01/29 00:12:43;;;;;;;10.38;7.78;;;;;;;5.17;100.00;98306.50;5031650;28;20657;-62
2023/01/29 00:15:09;;;;;;;9.15;6.82;;;;;;;4.88;100.00;98237.84;5031322;28;20186;-60
2023/01/29 00:17:34;;;;;;;6.07;5.43;;;;;;;5.07;90.38;98263.44;5031259;28;20182;-60
2023/01/29 00:20:00;;;;;;;7.03;6.22;;;;;;;5.21;87.43;98290.06;5031435;28;20540;-60
2023/01/29 00:22:26;;;;;;;5.63;5.13;;;;;;;5.33;88.75;98311.69;5031197;28;20214;-60
2023/01/29 00:24:51;;;;;;;8.73;6.95;;;;;;;5.31;90.74;98311.75;5047242;28;20703;-60
2023/01/29 00:27:16;;;;;;;7.25;6.38;;;;;;;5.31;92.25;98314.31;5053231;28;20209;-61
2023/01/29 00:29:42;;;;;;;7.75;6.18;;;;;;;5.00;93.20;98275.72;5053291;28;20208;-60
2023/01/29 00:32:07;;;;;;;9.15;7.10;;;;;;;4.98;93.73;98274.97;5053480;28;20633;-60
2023/01/29 00:34:33;;;;;;;6.00;5.40;;;;;;;5.19;95.14;98325.19;5053235;28;20178;-61
2023/01/29 00:37:03;;;;;;;5.50;5.00;;;;;;;5.24;95.82;98333.50;5053187;28;20225;-60
2023/01/29 00:39:37;;;;;;;4.50;4.10;;;;;;;5.29;91.78;98323.84;5053099;28;20166;-61
2023/01/29 00:44:59;;;;;;;4.00;3.63;;;;;;;5.20;83.84;98288.38;5053329;28;20204;-61
2023/01/29 00:47:33;;;;;;;5.25;4.75;;;;;;;5.50;82.38;98320.22;5052879;28;20219;-60
2023/01/29 00:50:04;;;;;;;6.97;6.10;;;;;;;5.22;82.08;98272.91;5052982;28;20180;-60
2023/01/29 00:52:30;;;;;;;4.03;3.70;;;;;;;5.50;82.55;98327.94;5053157;28;20713;-60
2023/01/29 00:54:57;;;;;;;5.03;4.65;;;;;;;5.21;84.33;98282.38;5052809;28;20218;-61
2023/01/29 00:57:25;;;;;;;6.53;4.00;;;;;;;5.55;80.88;98336.19;5053001;28;20200;-60
2023/01/29 00:59:51;;;;;;;3.88;3.53;;;;;;;5.19;81.20;98271.34;5052704;28;20180;-61
2023/01/29 01:05:04;;;;;;;4.03;3.38;;;;;;;5.17;85.10;98285.97;5052737;28;20165;-61
2023/01/29 01:07:30;;;;;;;4.03;3.67;;;;;;;5.34;86.75;98303.09;5053060;28;20255;-60
2023/01/29 01:12:40;;;;;;;3.25;3.05;;;;;;;5.55;84.06;98333.63;5053130;28;20173;-60
2023/01/29 01:15:06;;;;;;;3.33;3.08;;;;;;;5.22;83.49;98275.47;5052565;28;20170;-60
2023/01/29 01:17:31;;;;;;;4.15;3.85;;;;;;;5.51;84.38;98324.47;5052456;28;20178;-60
2023/01/29 01:19:57;;;;;;;5.18;4.78;;;;;;;5.34;84.26;98291.09;5052185;28;20174;-60
2023/01/29 01:22:22;;;;;;;4.68;4.28;;;;;;;5.22;83.16;98258.38;5052371;28;20238;-60
2023/01/29 01:24:48;;;;;;;4.72;4.32;;;;;;;5.27;82.85;98281.22;5052123;28;20170;-61
2023/01/29 01:27:13;;;;;;;3.95;3.65;;;;;;;5.38;83.08;98310.59;5052279;28;20202;-60
2023/01/29 01:29:39;;;;;;;4.22;3.92;;;;;;;5.15;85.02;98287.78;5052376;28;20525;-62
2023/01/29 01:32:05;;;;;;;4.63;4.22;;;;;;;5.19;86.03;98283.34;5052335;28;20174;-61
2023/01/29 01:34:31;;;;;;;4.88;4.47;;;;;;;5.26;87.13;98293.19;5052263;28;20669;-61
2023/01/29 01:36:56;;;;;;;6.00;5.40;;;;;;;5.22;84.35;98276.31;5052320;28;20200;-61
2023/01/29 01:39:23;;;;;;;5.82;5.32;;;;;;;5.36;84.81;98306.44;5051906;28;20178;-61
2023/01/29 01:41:48;;;;;;;5.32;4.72;;;;;;;5.31;84.65;98291.25;5052194;28;20192;-61
2023/01/29 01:44:51;;;;;;;5.53;4.75;;;;;;;5.47;85.89;98346.03;5052152;28;20265;-61
2023/01/29 01:47:21;;;;;;;6.50;5.10;;;;;;;5.17;84.75;98291.09;5052644;28;20197;-61
2023/01/29 01:49:46;;;;;;;5.97;5.38;;;;;;;5.10;85.92;98289.75;5051880;28;20170;-61
2023/01/29 01:52:15;;;;;;;5.60;5.10;;;;;;;5.05;86.94;98286.56;5052122;28;20211;-61
2023/01/29 01:54:41;;;;;;;5.50;4.88;;;;;;;5.26;88.03;98323.97;5052060;28;20177;-61
2023/01/29 01:57:14;;;;;;;5.53;4.65;;;;;;;5.32;88.83;98343.38;5052599;28;20186;-61
2023/01/29 01:59:44;;;;;;;6.93;4.63;;;;;;;5.17;89.78;98339.81;5052058;28;20633;-61
2023/01/29 02:10:39;;;;;;;4.35;3.88;;;;;;;4.72;93.31;98329.19;5056251;28;20166;-61
2023/01/29 02:13:06;;;;;;;5.00;4.60;;;;;;;4.78;91.80;98341.69;5056257;28;20170;-61
2023/01/29 02:15:31;;;;;;;4.57;4.22;;;;;;;4.43;92.70;98272.53;5055577;28;20193;-61
2023/01/29 02:17:57;;;;;;;4.95;4.40;;;;;;;4.54;94.04;98283.09;5056059;28;20651;-61
2023/01/29 02:20:28;;;;;;;5.65;5.15;;;;;;;4.75;94.89;98329.03;5055471;28;20177;-61
2023/01/29 02:22:54;;;;;;;4.65;4.22;;;;;;;4.91;95.30;98359.91;5055752;28;20182;-61
2023/01/29 02:25:39;;;;;;;5.30;4.90;;;;;;;4.96;94.04;98348.53;5055690;28;20345;-62
2023/01/29 02:28:41;;;;;;;8.05;5.70;;;;;;;5.00;93.48;98352.63;5056004;28;20201;-62
2023/01/29 02:31:12;;;;;;;5.88;5.20;;;;;;;5.06;92.87;98354.91;5056165;28;20166;-61
2023/01/29 02:33:52;;;;;;;5.70;5.20;;;;;;;5.06;92.48;98354.91;5055798;28;20181;-61
2023/01/29 02:36:33;;;;;;;5.32;4.82;;;;;;;5.11;91.29;98363.19;5055442;28;20641;-61
2023/01/29 02:38:59;;;;;;;5.00;4.53;;;;;;;5.21;89.84;98368.72;5055618;28;20633;-61
2023/01/29 02:41:36;;;;;;;5.82;5.32;;;;;;;5.14;90.12;98368.16;5055392;28;20184;-61
2023/01/29 02:44:13;;;;;;;6.40;5.70;;;;;;;5.10;90.81;98363.28;5055316;28;20269;-61
2023/01/29 02:46:54;;;;;;;6.18;5.38;;;;;;;5.12;90.22;98361.47;5055234;28;20284;-61
2023/01/29 02:49:31;;;;;;;7.30;5.93;;;;;;;5.09;91.50;98371.88;5055784;28;20517;-61
2023/01/29 02:52:00;;;;;;;5.75;5.15;;;;;;;5.06;91.05;98367.72;5055401;28;20540;-60
2023/01/29 02:54:46;;;;;;;8.30;5.40;;;;;;;5.11;91.47;98368.34;5055051;28;20185;-60
2023/01/29 02:57:29;;;;;;;6.70;6.07;;;;;;;4.96;93.03;98371.59;5055605;28;20624;-60
2023/01/29 03:00:05;;;;;;;5.78;5.28;;;;;;;4.52;94.60;98321.59;5055391;28;20174;-60
2023/01/29 03:02:41;;;;;;;5.85;4.90;;;;;;;4.89;95.68;98374.53;5053377;28;20196;-62
2023/01/29 03:05:18;;;;;;;6.00;5.35;;;;;;;4.33;97.93;98299.44;5055257;28;20534;-60
2023/01/29 03:07:57;;;;;;;8.15;6.28;;;;;;;4.66;96.79;98367.91;5055289;28;20185;-61
2023/01/29 03:10:41;;;;;;;7.70;6.38;;;;;;;4.64;98.50;98377.41;5055386;28;20254;-60
2023/01/29 03:13:18;;;;;;;7.38;6.68;;;;;;;4.63;99.38;98370.63;5055062;28;20174;-60
2023/01/29 03:16:01;;;;;;;7.97;6.60;;;;;;;4.30;99.82;98318.34;5054707;28;20521;-60
2023/01/29 03:18:32;;;;;;;7.80;6.20;;;;;;;4.28;100.00;98309.91;5054746;28;20166;-61
2023/01/29 03:21:48;;;;;;;7.97;6.40;;;;;;;4.71;100.00;98383.91;5054681;28;20173;-60
2023/01/29 03:32:05;;;;;;;4.00;3.70;;;;;;;4.83;99.68;98364.59;5054487;28;20169;-60
2023/01/29 03:34:42;;;;;;;3.80;3.50;;;;;;;4.48;98.97;98314.94;5054330;28;20187;-61
2023/01/29 03:37:15;;;;;;;3.75;3.45;;;;;;;4.38;97.98;98298.31;5054436;28;20274;-60
2023/01/29 03:39:40;;;;;;;3.65;3.35;;;;;;;4.31;97.65;98291.81;5055143;28;20562;-60
2023/01/29 03:42:09;;;;;;;4.00;3.70;;;;;;;4.95;97.12;98390.47;5054266;28;20174;-60
2023/01/29 03:44:51;;;;;;;3.13;2.85;;;;;;;4.52;94.80;98331.00;5054157;28;20217;-61
2023/01/29 03:47:23;;;;;;;4.88;3.45;;;;;;;4.50;95.84;98333.63;5054943;28;20197;-61
2023/01/29 03:50:04;;;;;;;3.95;3.55;;;;;;;4.88;96.07;98401.91;5054664;28;20649;-60
2023/01/29 03:52:46;;;;;;;4.97;4.03;;;;;;;4.89;96.18;98403.56;5053972;28;20180;-61
2023/01/29 03:55:11;;;;;;;4.68;4.10;;;;;;;4.88;93.83;98409.59;5054302;28;20172;-60
2023/01/29 03:57:55;;;;;;;4.78;4.38;;;;;;;4.90;93.41;98412.09;5054194;28;20185;-61
2023/01/29 04:00:30;;;;;;;5.30;4.80;;;;;;;4.23;95.25;98313.56;5054150;28;20178;-60
2023/01/29 04:03:30;;;;;;;4.88;4.43;;;;;;;4.49;94.35;98361.91;5054684;28;20181;-60
2023/01/29 04:06:17;;;;;;;5.75;5.22;;;;;;;4.90;96.57;98412.91;5054646;28;20169;-60
2023/01/29 04:09:05;;;;;;;6.03;5.40;;;;;;;4.86;96.31;98416.53;5053393;28;20280;-60
2023/01/29 04:11:34;;;;;;;5.85;5.15;;;;;;;4.86;98.06;98403.72;5051222;28;20193;-60
2023/01/29 04:13:59;;;;;;;6.53;5.82;;;;;;;4.54;98.28;98365.91;5052020;28;20279;-61
2023/01/29 04:16:34;;;;;;;6.05;5.43;;;;;;;4.82;98.39;98422.69;5051328;28;20209;-60
2023/01/29 04:18:59;;;;;;;6.63;5.65;;;;;;;4.75;99.64;98410.22;5051504;28;20231;-60
2023/01/29 04:21:26;;;;;;;5.40;4.90;;;;;;;4.83;99.05;98423.53;5051274;28;20664;-60
2023/01/29 04:23:51;;;;;;;7.25;6.13;;;;;;;4.31;99.03;98348.16;5050276;28;20217;-60
2023/01/29 04:26:36;;;;;;;8.27;6.20;;;;;;;4.84;99.83;98435.44;5051545;28;20181;-60
2023/01/29 04:29:31;;;;;;;9.25;7.18;;;;;;;4.85;100.00;98443.03;5051557;28;20619;-61
2023/01/29 04:32:34;;;;;;;9.77;6.88;;;;;;;4.27;100.00;98344.06;5050996;28;20194;-60
2023/01/29 04:35:06;;;;;;;9.00;7.32;;;;;;;4.89;100.00;98446.31;5051472;28;20173;-60
2023/01/29 04:37:39;;;;;;;9.60;7.38;;;;;;;4.85;100.00;98444.78;5051142;28;20707;-60
2023/01/29 04:40:20;;;;;;;7.80;7.00;;;;;;;4.81;100.00;98431.28;5051346;28;20178;-61
2023/01/29 04:43:28;;;;;;;8.65;7.15;;;;;;;4.97;100.00;98447.63;5052223;28;20198;-60
2023/01/29 04:45:53;;;;;;;9.63;7.47;;;;;;;4.99;100.00;98447.53;5050641;28;20182;-60
2023/01/29 04:48:29;;;;;;;8.75;7.28;;;;;;;4.59;100.00;98404.94;5050764;28;20221;-60
2023/01/29 04:50:54;;;;;;;9.38;7.38;;;;;;;4.83;100.00;98460.22;5051187;28;20296;-60
2023/01/29 04:53:28;;;;;;;7.88;6.80;;;;;;;4.70;100.00;98471.09;5050573;28;20767;-60
2023/01/29 04:56:02;;;;;;;9.07;7.15;;;;;;;4.37;100.00;98409.34;5050503;28;20240;-60
2023/01/29 04:58:39;;;;;;;8.85;6.85;;;;;;;4.07;100.00;98369.72;5050546;28;20674;-60
2023/01/29 05:01:08;;;;;;;9.93;6.95;;;;;;;4.26;100.00;98403.88;5050923;28;20186;-60
2023/01/29 05:03:36;;;;;;;7.80;6.47;;;;;;;4.31;100.00;98422.44;5050386;28;20624;-60
2023/01/29 05:06:04;;;;;;;10.20;7.10;;;;;;;4.30;100.00;98418.22;5050194;28;20551;-61
2023/01/29 05:08:31;;;;;;;8.93;6.63;;;;;;;4.47;100.00;98456.72;5050113;28;20799;-60
2023/01/29 05:10:58;;;;;;;10.80;7.25;;;;;;;4.46;100.00;98467.88;5050547;28;20185;-61
2023/01/29 05:13:27;;;;;;;8.52;6.72;;;;;;;4.21;100.00;98416.03;5050914;28;20572;-60
2023/01/29 05:16:19;;;;;;;9.63;7.75;;;;;;;4.21;100.00;98436.53;5050200;28;20609;-60
2023/01/29 05:18:45;;;;;;;9.15;7.40;;;;;;;4.43;100.00;98473.13;5006212;28;20226;-60
2023/01/29 05:21:11;;;;;;;10.90;8.02;;;;;;;4.07;100.00;98410.69;5030376;28;20240;-60
2023/01/29 05:23:36;;;;;;;8.55;7.07;;;;;;;4.40;100.00;98487.78;5010742;28;20693;-61
2023/01/29 05:26:02;;;;;;;8.40;7.25;;;;;;;4.41;100.00;98487.75;5011210;28;20183;-61
2023/01/29 05:28:27;;;;;;;11.63;8.48;;;;;;;4.14;100.00;98459.91;5011021;28;20219;-60
2023/01/29 05:30:55;;;;;;;14.68;10.40;;;;;;;4.17;100.00;98459.75;5010382;28;20684;-61
2023/01/29 05:33:28;;;;;;;23.73;13.75;;;;;;;4.05;100.00;98442.38;5010416;28;20210;-60
2023/01/29 05:35:57;;;;;;;22.02;14.25;;;;;;;4.44;100.00;98492.72;5010335;28;20171;-60
2023/01/29 05:38:22;;;;;;;16.80;12.32;;;;;;;4.53;100.00;98492.34;5010232;28;20662;-60
2023/01/29 05:40:48;;;;;;;16.10;11.30;;;;;;;4.20;100.00;98449.41;5010286;28;20187;-61
2023/01/29 05:43:16;;;;;;;14.13;9.57;;;;;;;3.95;100.00;98435.97;5010576;28;20278;-60
2023/01/29 05:45:42;;;;;;;13.00;8.60;;;;;;;3.99;100.00;98428.09;5010736;28;20249;-60
2023/01/29 05:48:07;;;;;;;10.48;7.68;;;;;;;4.36;100.00;98494.78;5010059;28;20213;-60
2023/01/29 05:50:33;;;;;;;11.13;8.23;;;;;;;4.34;100.00;98491.47;5038363;28;20192;-60
2023/01/29 05:52:59;;;;;;;7.88;6.93;;;;;;;4.27;100.00;98502.84;5050073;28;20296;-60
2023/01/29 05:55:25;;;;;;;11.30;8.25;;;;;;;4.18;100.00;98504.94;5052275;28;20190;-60
2023/01/29 05:57:51;;;;;;;9.18;7.63;;;;;;;4.05;100.00;98484.16;5052627;28;20261;-60
2023/01/29 06:00:16;;;;;;;10.27;7.05;;;;;;;3.82;100.00;98471.47;5052099;28;20696;-60
2023/01/29 06:02:42;;;;;;;10.80;8.02;;;;;;;3.59;100.00;98448.56;5052012;28;20196;-60
2023/01/29 06:05:08;;;;;;;12.27;8.30;;;;;;;3.95;100.00;98503.34;5052065;28;20252;-60
2023/01/29 06:07:33;;;;;;;11.13;7.80;;;;;;;3.97;100.00;98500.72;5051906;28;20396;-60
2023/01/29 06:09:59;;;;;;;10.02;7.00;;;;;;;3.79;100.00;98460.53;5051998;28;20180;-60
2023/01/29 06:12:25;;;;;;;10.18;7.97;;;;;;;4.14;100.00;98501.69;5052260;28;20647;-60
2023/01/29 06:14:51;;;;;;;21.58;13.68;;;;;;;3.96;100.00;98481.97;5052123;28;20219;-60
2023/01/29 06:17:16;;;;;;;23.73;13.73;;;;;;;4.15;100.00;98505.09;5051993;28;20186;-60
2023/01/29 06:19:41;;;;;;;20.35;13.38;;;;;;;3.88;100.00;98473.78;5052418;28;20178;-60
2023/01/29 06:22:09;;;;;;;18.77;11.73;;;;;;;4.05;100.00;98519.16;5051902;28;20270;-60
2023/01/29 06:24:35;;;;;;;19.75;12.63;;;;;;;4.19;100.00;98527.94;5052331;28;20185;-60
2023/01/29 06:27:00;;;;;;;17.67;12.15;;;;;;;3.91;100.00;98470.28;5051446;28;20205;-60
2023/01/29 06:29:26;;;;;;;21.60;12.98;;;;;;;3.98;100.00;98474.25;5051782;28;20207;-60
2023/01/29 06:31:51;;;;;;;16.58;11.43;;;;;;;4.44;100.00;98538.81;5051750;28;20220;-60
2023/01/29 06:34:17;;;;;;;17.75;12.43;;;;;;;4.10;100.00;98481.41;5052038;28;20174;-60
2023/01/29 06:36:42;;;;;;;16.35;12.18;;;;;;;3.87;100.00;98438.88;5052484;28;20201;-60
2023/01/29 06:39:08;;;;;;;20.10;13.88;;;;;;;4.36;100.00;98540.88;5051626;28;20178;-60
2023/01/29 06:41:33;;;;;;;16.50;11.93;;;;;;;4.09;100.00;98497.66;5051686;28;20269;-60
2023/01/29 06:43:59;;;;;;;16.00;11.75;;;;;;;4.08;100.00;98499.38;5051678;28;20249;-60
2023/01/29 06:46:24;;;;;;;14.40;11.35;;;;;;;4.26;100.00;98529.34;5051872;28;20182;-60
2023/01/29 06:48:49;;;;;;;19.58;11.75;;;;;;;4.45;100.00;98545.63;5054906;28;20611;-60
2023/01/29 06:51:15;;;;;;;17.92;11.50;;;;;;;4.47;100.00;98538.72;5055161;28;20641;-60
2023/01/29 06:53:40;;;;;;;10.75;8.73;;;;;;;4.64;100.00;98553.34;5055219;28;20227;-60
2023/01/29 06:56:06;;;;;;;12.00;8.35;;;;;;;4.32;100.00;98503.47;5055053;28;20223;-60
2023/01/29 06:58:32;;;;;;;12.00;7.93;;;;;;;4.35;100.00;98505.09;5054683;28;20192;-60
2023/01/29 07:01:09;;;;;;;8.75;6.85;;;;;;;4.69;100.00;98552.28;5054741;28;20264;-60
2023/01/29 07:03:35;;;;;;;12.50;8.35;;;;;;;4.48;100.00;98508.81;5055230;28;20589;-62
2023/01/29 07:06:00;;;;;;;9.85;7.68;;;;;;;4.81;100.00;98558.59;5054982;28;20186;-61
2023/01/29 07:08:27;;;;;;;15.68;10.52;;;;;;;4.92;100.00;98575.19;5054845;28;20205;-61
2023/01/29 07:10:52;;;;;;;14.25;10.25;;;;;;;4.93;100.00;98568.31;5054843;28;20185;-62
2023/01/29 07:13:18;;;;;;;14.40;8.93;;;;;;;4.77;100.00;98526.28;5052558;28;20208;-61
2023/01/29 07:15:43;;;;;;;11.77;8.70;;;;;;;4.93;100.00;98546.09;5053166;28;20190;-61
2023/01/29 07:18:12;;;;;;;14.05;10.15;;;;;;;4.77;100.00;98518.59;5052424;28;20189;-61
2023/01/29 07:20:39;;;;;;;18.25;11.35;;;;;;;5.15;100.00;98575.00;5052378;28;20182;-61
2023/01/29 07:23:05;;;;;;;11.65;8.00;;;;;;;5.19;100.00;98581.66;5052396;28;20174;-61
2023/01/29 07:25:30;;;;;;;10.38;8.00;;;;;;;5.09;100.00;98575.28;5052008;28;20197;-61
2023/01/29 07:27:59;;;;;;;16.20;9.88;;;;;;;4.90;100.00;98546.19;5052405;28;20695;-61
2023/01/29 07:30:24;;;;;;;20.60;11.10;;;;;;;4.88;100.00;98540.31;5052151;28;20208;-61
2023/01/29 07:32:50;;;;;;;10.95;8.13;;;;;;;4.83;100.00;98531.19;5052099;28;20656;-61
2023/01/29 07:35:15;;;;;;;8.13;6.50;;;;;;;5.12;100.00;98562.31;5052102;28;20174;-61
2023/01/29 07:37:41;;;;;;;11.65;7.28;;;;;;;4.82;100.00;98512.41;5032060;28;20677;-61
2023/01/29 07:40:11;;;;;;;12.05;8.82;;;;;;;5.14;100.00;98586.16;5032578;28;20593;-61
2023/01/29 07:42:38;;;;;;;14.25;9.57;;;;;;;4.79;100.00;98515.06;5032131;28;20208;-61
2023/01/29 07:45:05;;;;;;;8.00;5.22;;;;;;;4.69;98.57;98483.09;5032033;28;20255;-61
2023/01/29 07:47:30;;;;;;;7.65;6.40;;;;;;;4.90;99.74;98528.25;5031939;28;20813;-62
2023/01/29 07:49:56;;;;;;;10.50;7.80;;;;;;;5.31;100.00;98588.78;5035598;28;20193;-61
2023/01/29 07:52:21;;;;;;;11.50;8.40;;;;;;;5.35;100.00;98577.50;5051750;28;20244;-61
2023/01/29 07:54:46;;;;;;;10.40;8.27;;;;;;;5.43;100.00;98577.16;5051628;28;20670;-61
2023/01/29 07:57:12;;;;;;;6.70;5.85;;;;;;;5.06;100.00;98529.25;5012478;28;20194;-61
2023/01/29 07:59:37;;;;;;;9.50;6.90;;;;;;;5.41;99.21;98586.66;5012144;28;20217;-61
2023/01/29 08:02:03;;;;;;;13.65;8.60;;;;;;;5.25;100.00;98581.38;5012047;28;20252;-61
2023/01/29 08:04:28;;;;;;;10.50;8.30;;;;;;;5.31;100.00;98586.22;5012121;28;20693;-61
2023/01/29 08:06:53;;;;;;;10.50;7.15;;;;;;;5.42;100.00;98596.84;5011690;28;20222;-61
2023/01/29 08:09:19;;;;;;;9.63;7.93;;;;;;;5.07;100.00;98536.03;5027135;28;20187;-61
2023/01/29 08:11:44;;;;;;;7.93;5.70;;;;;;;5.14;98.27;98552.00;5031743;28;20281;-61
2023/01/29 08:14:10;;;;;;;11.73;7.82;;;;;;;5.09;98.81;98549.66;5031379;28;20669;-61
2023/01/29 08:16:35;;;;;;;8.85;5.93;;;;;;;5.39;99.28;98596.16;5031419;28;20190;-61
2023/01/29 08:19:01;;;;;;;8.32;6.28;;;;;;;5.32;99.46;98584.50;5031325;28;20217;-62
2023/01/29 08:21:27;;;;;;;9.38;7.05;;;;;;;5.42;99.30;98594.28;5031571;28;20175;-62
2023/01/29 08:23:52;;;;;;;6.28;5.65;;;;;;;5.36;97.03;98579.16;5031345;28;20190;-61
2023/01/29 08:26:17;;;;;;;9.27;6.45;;;;;;;5.21;96.22;98549.09;5030718;28;20186;-61
2023/01/29 08:28:43;;;;;;;4.97;4.47;;;;;;;5.35;95.01;98551.84;5046742;28;20224;-62
2023/01/29 08:31:15;;;;;;;4.75;4.32;;;;;;;5.63;94.41;98606.16;5053854;28;20239;-62
2023/01/29 08:33:41;;;;;;;7.18;5.85;;;;;;;5.56;95.70;98612.47;5053313;28;20231;-62
2023/01/29 08:36:07;;;;;;;4.60;3.55;;;;;;;5.22;94.01;98557.59;5053182;28;20218;-62
2023/01/29 08:38:33;;;;;;;7.22;5.28;;;;;;;5.35;95.46;98598.03;5052951;28;20166;-61
2023/01/29 08:40:58;;;;;;;8.63;5.43;;;;;;;5.50;94.81;98617.03;5053652;28;20180;-62
2023/01/29 08:43:23;;;;;;;7.72;6.13;;;;;;;5.38;95.48;98597.06;5053402;28;20640;-62
2023/01/29 08:45:49;;;;;;;6.75;6.05;;;;;;;5.37;95.39;98596.22;5053915;28;20181;-61
2023/01/29 08:48:14;;;;;;;6.80;5.75;;;;;;;5.49;94.89;98631.59;5052994;28;20584;-61
2023/01/29 08:50:39;;;;;;;10.05;5.53;;;;;;;5.05;95.36;98560.94;5053000;28;20182;-62
2023/01/29 08:53:07;;;;;;;6.20;5.25;;;;;;;5.46;95.16;98631.75;5053234;28;20204;-62
2023/01/29 08:55:35;;;;;;;8.00;4.80;;;;;;;4.96;95.00;98540.81;5053402;28;20186;-62
2023/01/29 08:58:03;;;;;;;7.63;5.10;;;;;;;5.47;95.27;98628.28;5053329;28;20189;-62
2023/01/29 09:00:28;;;;;;;11.40;6.47;;;;;;;5.34;95.96;98601.50;5052745;28;20238;-62
2023/01/29 09:02:53;;;;;;;7.72;5.40;;;;;;;4.88;95.36;98519.81;5052773;28;20173;-62
2023/01/29 09:05:19;;;;;;;6.95;5.97;;;;;;;5.55;95.81;98628.75;5053240;28;20184;-62
2023/01/29 09:07:44;;;;;;;9.75;5.53;;;;;;;5.53;94.86;98622.06;5052544;28;20194;-62
2023/01/29 09:10:11;;;;;;;3.60;3.30;;;;;;;5.42;92.89;98614.00;5052178;28;20177;-62
2023/01/29 09:12:36;;;;;;;3.67;3.38;;;;;;;5.47;93.68;98628.28;5053108;28;20284;-61
2023/01/29 09:15:02;;;;;;;2.60;2.40;;;;;;;5.06;92.57;98560.03;5052404;28;20626;-61
2023/01/29 09:17:28;;;;;;;2.28;2.17;;;;;;;5.38;92.93;98603.03;5053075;28;20181;-61
2023/01/29 09:19:53;;;;;;;5.78;4.28;;;;;;;5.35;93.40;98598.03;5052433;28;20628;-62
2023/01/29 09:22:19;;;;;;;6.03;4.22;;;;;;;5.10;93.65;98564.13;5052426;28;20209;-63
2023/01/29 09:24:44;;;;;;;6.57;5.40;;;;;;;5.47;94.52;98617.19;5052449;28;20199;-61
2023/01/29 09:27:10;;;;;;;5.15;4.65;;;;;;;5.05;93.17;98550.66;5052346;28;20743;-63
2023/01/29 09:29:36;;;;;;;4.20;3.80;;;;;;;5.50;93.18;98612.75;5052318;28;20232;-63
2023/01/29 09:32:05;;;;;;;5.97;3.17;;;;;;;5.53;92.65;98620.28;5052360;28;20184;-63
2023/01/29 09:34:31;;;;;;;5.43;4.53;;;;;;;5.20;93.07;98555.09;5052309;28;20695;-62
2023/01/29 09:36:56;;;;;;;4.25;3.85;;;;;;;5.07;91.95;98515.53;5052198;28;20189;-61
2023/01/29 09:39:21;;;;;;;4.55;4.13;;;;;;;5.39;92.46;98568.78;5052267;28;20193;-62
2023/01/29 09:42:12;;;;;;;3.85;3.55;;;;;;;5.67;92.00;98614.53;5052812;28;20205;-61
2023/01/29 09:45:01;;;;;;;4.60;3.78;;;;;;;5.62;91.89;98622.47;5050033;28;20194;-61
2023/01/29 09:47:28;;;;;;;3.90;3.53;;;;;;;5.31;92.96;98578.53;5050037;28;20220;-62
2023/01/29 09:50:01;;;;;;;5.35;4.13;;;;;;;5.50;93.44;98617.03;5049970;28;20196;-62
2023/01/29 09:52:35;;;;;;;9.73;7.05;;;;;;;5.28;92.77;98560.72;5049839;28;20185;-61
2023/01/29 09:55:11;;;;;;;8.07;6.45;;;;;;;4.99;91.92;98511.63;5050373;28;20182;-62
2023/01/29 09:57:52;;;;;;;9.95;8.48;;;;;;;5.46;93.01;98589.84;5050073;28;20691;-61
2023/01/29 10:00:24;;;;;;;4.53;4.13;;;;;;;5.51;91.89;98596.44;5050130;28;20193;-62
2023/01/29 10:03:28;;;;;;;8.77;7.88;;;;;;;5.66;91.47;98613.69;5049794;28;20268;-61
2023/01/29 10:06:08;;;;;;;10.73;8.75;;;;;;;5.67;91.51;98610.25;5049282;28;20178;-61
2023/01/29 10:08:49;;;;;;;4.68;4.28;;;;;;;5.65;90.85;98612.03;5050288;28;20267;-61
2023/01/29 10:11:31;;;;;;;5.35;4.85;;;;;;;5.67;90.85;98614.53;5050175;28;20189;-61
2023/01/29 10:14:26;;;;;;;4.35;3.95;;;;;;;5.58;91.11;98590.13;5049993;28;20166;-61
2023/01/29 10:17:07;;;;;;;11.25;8.32;;;;;;;5.67;92.06;98605.13;5050158;28;20182;-61
2023/01/29 10:19:46;;;;;;;5.45;4.07;;;;;;;5.36;89.15;98547.56;5049562;28;20174;-61
2023/01/29 10:22:41;;;;;;;4.35;3.75;;;;;;;5.63;87.79;98598.47;5053297;28;20189;-61
2023/01/29 10:25:12;;;;;;;5.72;4.38;;;;;;;5.64;88.16;98583.88;5034569;28;20684;-61
2023/01/29 10:27:40;;;;;;;3.80;3.58;;;;;;;5.71;89.30;98583.53;5033935;28;20210;-62
2023/01/29 10:30:19;;;;;;;6.40;5.22;;;;;;;5.68;88.33;98570.84;5033519;28;20624;-61
2023/01/29 10:32:46;;;;;;;16.58;9.88;;;;;;;5.50;88.67;98529.78;5033907;28;20171;-61
2023/01/29 10:35:34;;;;;;;10.68;7.45;;;;;;;5.91;89.12;98578.34;5033685;28;20187;-61
2023/01/29 10:38:35;;;;;;;14.07;8.85;;;;;;;5.73;88.85;98530.41;5033159;28;20609;-61
2023/01/29 10:41:09;;;;;;;8.50;5.97;;;;;;;6.13;88.88;98580.72;5013752;28;20187;-61
2023/01/29 10:43:49;;;;;;;5.22;4.72;;;;;;;6.13;87.35;98573.81;5013559;28;20201;-61
2023/01/29 10:46:15;;;;;;;11.95;6.60;;;;;;;6.21;86.44;98573.44;5013793;28;20208;-61
2023/01/29 10:48:46;;;;;;;5.35;4.50;;;;;;;6.11;84.54;98567.94;5013200;28;20297;-61
2023/01/29 10:51:31;;;;;;;7.13;5.72;;;;;;;6.09;85.63;98577.47;5013658;28;20223;-60
2023/01/29 10:54:06;;;;;;;6.70;4.80;;;;;;;5.57;85.26;98475.56;5033167;28;20268;-60
2023/01/29 10:56:43;;;;;;;5.80;4.82;;;;;;;6.13;85.20;98576.38;5056702;28;20196;-60
2023/01/29 10:59:30;;;;;;;5.55;4.63;;;;;;;6.18;86.01;98573.63;5073270;28;20196;-61
2023/01/29 11:01:59;;;;;;;7.47;4.78;;;;;;;6.20;84.68;98561.53;5073497;28;20699;-61
2023/01/29 11:04:30;;;;;;;4.47;4.15;;;;;;;5.91;84.29;98506.44;5072830;28;20189;-62
2023/01/29 11:06:56;;;;;;;6.40;5.65;;;;;;;6.21;83.63;98558.88;5072702;28;20189;-62
2023/01/29 11:09:47;;;;;;;8.07;7.28;;;;;;;6.28;83.87;98552.53;5072665;28;20185;-62
2023/01/29 11:12:17;;;;;;;6.80;5.45;;;;;;;6.31;83.62;98547.25;5073060;28;20242;-62
2023/01/29 11:14:54;;;;;;;8.80;5.85;;;;;;;6.04;83.85;98491.25;5072550;28;20250;-62
2023/01/29 11:17:22;;;;;;;42.65;18.55;;;;;;;6.11;83.98;98479.78;5072827;28;20173;-62
2023/01/29 11:19:52;;;;;;;38.40;15.57;;;;;;;5.97;83.54;98459.91;5072416;28;20193;-62
2023/01/29 11:22:25;;;;;;;13.80;8.15;;;;;;;6.55;83.30;98540.91;5072321;28;20193;-62
2023/01/29 11:25:15;;;;;;;6.30;4.82;;;;;;;6.61;81.77;98535.44;5064610;28;20577;-62
2023/01/29 11:27:53;;;;;;;8.50;6.38;;;;;;;6.36;80.22;98483.59;5054806;28;20193;-62
2023/01/29 11:30:32;;;;;;;10.43;6.70;;;;;;;6.65;80.61;98530.97;5055083;28;20374;-62
2023/01/29 11:33:04;;;;;;;12.45;8.25;;;;;;;6.70;82.02;98529.81;5054162;28;20631;-62
2023/01/29 11:35:31;;;;;;;8.80;6.85;;;;;;;6.72;81.74;98519.47;5054236;28;20187;-62
2023/01/29 11:38:17;;;;;;;16.60;11.18;;;;;;;6.88;82.35;98523.72;5054472;28;20225;-62
2023/01/29 11:40:43;;;;;;;10.00;7.25;;;;;;;6.69;81.63;98484.47;5054881;28;20620;-62
2023/01/29 11:43:15;;;;;;;18.25;11.25;;;;;;;6.99;79.69;98521.44;5054327;28;20201;-62
2023/01/29 11:45:41;;;;;;;5.78;4.93;;;;;;;7.09;79.04;98514.06;5054291;28;20663;-62
2023/01/29 11:48:31;;;;;;;7.65;6.55;;;;;;;7.07;78.77;98514.16;5054093;28;20220;-62
2023/01/29 11:50:59;;;;;;;10.98;7.78;;;;;;;6.78;79.32;98460.84;5054133;28;20182;-62
2023/01/29 11:53:44;;;;;;;11.20;7.97;;;;;;;7.23;79.21;98512.41;5054572;28;20529;-62
2023/01/29 11:56:34;;;;;;;10.88;8.02;;;;;;;7.21;77.31;98516.81;5054649;28;20170;-62
2023/01/29 11:59:03;;;;;;;12.07;9.35;;;;;;;6.90;77.59;98465.34;5054812;28;20674;-62
2023/01/29 12:01:46;;;;;;;17.63;11.82;;;;;;;6.83;77.61;98463.16;5053899;28;20217;-62
2023/01/29 12:04:25;;;;;;;16.00;10.35;;;;;;;7.09;78.76;98507.19;5054427;28;20170;-62
2023/01/29 12:06:52;;;;;;;13.95;10.30;;;;;;;6.54;77.75;98412.44;5053533;28;20169;-62
2023/01/29 12:09:26;;;;;;;11.90;7.78;;;;;;;6.78;78.67;98444.56;5053740;28;20185;-62
2023/01/29 12:11:52;;;;;;;31.10;18.02;;;;;;;6.89;78.04;98450.81;5054347;28;20212;-62
2023/01/29 12:14:33;;;;;;;17.40;11.95;;;;;;;7.18;76.79;98498.13;5053455;28;20645;-62
2023/01/29 12:17:11;;;;;;;11.13;8.50;;;;;;;7.28;77.28;98509.63;5053536;28;20173;-62